Time;durP1;ratioP1;P1;durP2;ratioP2;P2;SDS_P1;SDS_P2;PMS_P1;PMS_P2;Temp;Humidity;BMP_temperature;BMP_pressure;BME280_temperature;BME280_humidity;BME280_pressure;Samples;Min_cycle;Max_cycle;Signal;HPM_P1;HPM_P2
2023/08/22 00:00:45;;;;;;;10.13;8.80;;;30.20;56.30;;;;;;5014665;28;20507;-51
2023/08/22 00:03:11;;;;;;;9.80;8.90;;;30.20;56.30;;;;;;5013750;28;20509;-50
2023/08/22 00:05:37;;;;;;;9.33;8.50;;;30.20;56.40;;;;;;5014768;28;20190;-50
2023/08/22 00:08:06;;;;;;;9.70;8.90;;;30.10;56.80;;;;;;5014041;28;20846;-47
2023/08/22 00:10:32;;;;;;;9.20;8.40;;;30.00;56.90;;;;;;5012848;28;20650;-49
2023/08/22 00:12:58;;;;;;;10.03;8.93;;;30.00;57.00;;;;;;5013957;28;20800;-50
2023/08/22 00:15:23;;;;;;;9.80;8.90;;;30.00;56.90;;;;;;5016033;28;20421;-49
2023/08/22 00:17:50;;;;;;;8.93;8.13;;;30.00;56.80;;;;;;5024958;28;20580;-46
2023/08/22 00:20:16;;;;;;;13.90;8.73;;;30.00;56.80;;;;;;5014222;28;20198;-46
2023/08/22 00:22:42;;;;;;;9.70;8.90;;;30.00;56.70;;;;;;5013895;28;20425;-46
2023/08/22 00:25:09;;;;;;;9.37;8.60;;;30.00;56.70;;;;;;5014043;28;20189;-48
2023/08/22 00:27:35;;;;;;;9.10;7.70;;;30.00;57.30;;;;;;5009286;28;20194;-47
2023/08/22 00:30:01;;;;;;;8.27;7.57;;;29.90;56.80;;;;;;5008991;28;20432;-48
2023/08/22 00:32:26;;;;;;;9.37;8.27;;;29.90;56.80;;;;;;5013603;28;20198;-46
2023/08/22 00:34:52;;;;;;;8.90;8.10;;;29.90;56.80;;;;;;5014216;28;20193;-48
2023/08/22 00:37:19;;;;;;;9.03;8.20;;;29.80;56.90;;;;;;5012040;28;20221;-46
2023/08/22 00:39:44;;;;;;;8.30;7.60;;;29.80;56.90;;;;;;5013982;28;20561;-46
2023/08/22 00:42:10;;;;;;;10.20;7.60;;;29.60;57.70;;;;;;5013329;28;20432;-47
2023/08/22 00:44:36;;;;;;;8.07;7.37;;;29.30;58.60;;;;;;5014134;28;20190;-48
2023/08/22 00:47:02;;;;;;;9.37;8.40;;;29.20;58.60;;;;;;5012875;28;20237;-47
2023/08/22 00:49:28;;;;;;;9.07;8.13;;;29.30;58.40;;;;;;5014014;28;20665;-46
2023/08/22 00:51:56;;;;;;;8.30;7.60;;;29.40;58.30;;;;;;5013164;28;20432;-51
2023/08/22 00:54:24;;;;;;;8.23;7.53;;;29.40;58.10;;;;;;5013523;28;20642;-46
2023/08/22 00:56:50;;;;;;;9.37;7.70;;;29.50;57.90;;;;;;5013033;28;20551;-46
2023/08/22 00:59:16;;;;;;;8.23;7.53;;;29.50;57.70;;;;;;5013487;28;20433;-46
2023/08/22 01:01:42;;;;;;;8.43;7.63;;;29.50;57.60;;;;;;5012082;28;20421;-46
2023/08/22 01:04:07;;;;;;;8.33;7.53;;;29.50;57.60;;;;;;5011726;28;20418;-47
2023/08/22 01:06:53;;;;;;;8.57;7.87;;;29.50;57.60;;;;;;5012762;28;20244;-46
2023/08/22 01:09:32;;;;;;;9.10;8.40;;;29.50;57.60;;;;;;5013453;28;20598;-46
2023/08/22 01:12:19;;;;;;;8.97;8.17;;;29.40;58.00;;;;;;5012632;28;20936;-46
2023/08/22 01:14:59;;;;;;;8.43;7.57;;;29.30;58.30;;;;;;5013230;28;20515;-46
2023/08/22 01:17:25;;;;;;;8.90;8.20;;;29.20;58.60;;;;;;5018163;28;20491;-47
2023/08/22 01:19:51;;;;;;;8.57;7.77;;;28.90;59.30;;;;;;5013359;28;20432;-47
2023/08/22 01:22:23;;;;;;;13.83;7.90;;;28.90;59.50;;;;;;5012819;28;20421;-46
2023/08/22 01:24:49;;;;;;;8.33;7.70;;;28.90;59.40;;;;;;5013092;28;20282;-47
2023/08/22 01:27:16;;;;;;;8.70;7.90;;;29.00;59.20;;;;;;5012583;28;20976;-47
2023/08/22 01:29:48;;;;;;;9.37;8.37;;;29.00;59.00;;;;;;5001762;28;20561;-46
2023/08/22 01:32:24;;;;;;;9.67;8.87;;;29.00;59.10;;;;;;5012714;28;20421;-45
2023/08/22 01:34:53;;;;;;;8.63;7.63;;;28.90;59.10;;;;;;5012910;28;20435;-45
2023/08/22 01:37:21;;;;;;;8.83;7.87;;;28.90;59.20;;;;;;5012589;28;20850;-48
2023/08/22 01:39:48;;;;;;;8.93;8.10;;;29.00;59.10;;;;;;5013127;28;20436;-46
2023/08/22 01:42:13;;;;;;;9.77;8.90;;;28.90;59.20;;;;;;5012548;28;20841;-45
2023/08/22 01:44:39;;;;;;;9.50;8.57;;;28.90;59.30;;;;;;5012644;28;20429;-46
2023/08/22 01:47:05;;;;;;;9.30;8.50;;;28.90;59.20;;;;;;5012399;28;20713;-46
2023/08/22 01:49:31;;;;;;;9.50;8.60;;;28.80;59.40;;;;;;5013040;28;20198;-46
2023/08/22 01:51:58;;;;;;;10.13;9.13;;;28.80;59.70;;;;;;5011985;28;20193;-45
2023/08/22 01:54:24;;;;;;;9.30;8.47;;;28.80;59.60;;;;;;5013119;28;20429;-48
2023/08/22 01:56:49;;;;;;;8.83;8.13;;;28.60;60.30;;;;;;5010823;28;20554;-45
2023/08/22 01:59:15;;;;;;;9.27;8.33;;;28.50;60.90;;;;;;5012827;28;20190;-47
2023/08/22 02:01:41;;;;;;;9.50;8.70;;;28.40;61.70;;;;;;5011801;28;20190;-46
2023/08/22 02:04:06;;;;;;;9.47;8.67;;;28.40;61.40;;;;;;5012847;28;20198;-47
2023/08/22 02:06:32;;;;;;;9.07;8.27;;;28.50;60.90;;;;;;5012223;28;20268;-47
2023/08/22 02:08:57;;;;;;;9.63;8.83;;;28.60;60.70;;;;;;5012814;28;20217;-47
2023/08/22 02:11:23;;;;;;;9.77;8.73;;;28.60;60.70;;;;;;5011805;28;20580;-46
2023/08/22 02:13:49;;;;;;;9.90;9.07;;;28.60;60.80;;;;;;5016247;28;20192;-45
2023/08/22 02:16:15;;;;;;;11.07;8.80;;;28.60;60.90;;;;;;5024506;28;20231;-46
2023/08/22 02:18:40;;;;;;;10.67;9.63;;;28.60;61.10;;;;;;5019562;28;20665;-47
2023/08/22 02:21:06;;;;;;;9.10;8.20;;;28.50;61.10;;;;;;5016079;28;20409;-46
2023/08/22 02:23:32;;;;;;;9.90;9.10;;;28.50;61.40;;;;;;5015074;28;20244;-46
2023/08/22 02:25:58;;;;;;;9.50;8.80;;;28.40;61.80;;;;;;5015974;28;20712;-46
2023/08/22 02:28:23;;;;;;;9.63;8.80;;;28.40;61.90;;;;;;5012165;28;20562;-45
2023/08/22 02:30:54;;;;;;;9.83;8.00;;;28.40;61.90;;;;;;5016236;28;20432;-47
2023/08/22 02:33:20;;;;;;;9.97;8.87;;;28.40;62.10;;;;;;5016311;28;20293;-47
2023/08/22 02:35:46;;;;;;;12.27;8.50;;;28.20;62.30;;;;;;5016076;28;20520;-46
2023/08/22 02:38:11;;;;;;;9.33;8.63;;;28.20;62.50;;;;;;5015782;28;20201;-46
2023/08/22 02:40:37;;;;;;;9.53;8.63;;;28.20;62.70;;;;;;5016355;28;20272;-46
2023/08/22 02:43:02;;;;;;;9.57;8.57;;;27.80;63.80;;;;;;5015746;28;20202;-47
2023/08/22 02:45:28;;;;;;;9.50;8.60;;;27.90;64.00;;;;;;5016126;28;20289;-46
2023/08/22 02:47:54;;;;;;;10.33;9.10;;;28.00;63.40;;;;;;5014579;28;20261;-46
2023/08/22 02:50:23;;;;;;;10.40;9.40;;;28.10;63.00;;;;;;5015098;28;20852;-46
2023/08/22 02:52:51;;;;;;;9.40;8.60;;;28.20;62.80;;;;;;5015413;28;20198;-46
2023/08/22 02:55:17;;;;;;;10.10;9.17;;;28.20;62.60;;;;;;5016217;28;20850;-46
2023/08/22 02:57:43;;;;;;;10.23;9.13;;;28.30;62.60;;;;;;5015345;28;20571;-46
2023/08/22 03:00:13;;;;;;;10.20;9.10;;;28.30;62.30;;;;;;5015930;28;20277;-48
2023/08/22 03:02:39;;;;;;;10.37;9.33;;;28.30;62.40;;;;;;5015215;28;20467;-45
2023/08/22 03:05:08;;;;;;;10.80;9.33;;;28.20;62.70;;;;;;5015720;28;20433;-47
2023/08/22 03:07:34;;;;;;;10.23;9.03;;;28.20;62.80;;;;;;5015119;28;20437;-46
2023/08/22 03:09:59;;;;;;;9.50;8.60;;;28.20;62.90;;;;;;5015712;28;20787;-45
2023/08/22 03:12:25;;;;;;;10.67;9.57;;;28.10;63.10;;;;;;5015427;28;20217;-46
2023/08/22 03:14:51;;;;;;;9.30;8.50;;;28.00;63.40;;;;;;5013711;28;20686;-46
2023/08/22 03:17:16;;;;;;;9.57;8.67;;;27.80;64.60;;;;;;5020045;28;20685;-46
2023/08/22 03:19:42;;;;;;;8.47;7.87;;;27.70;64.50;;;;;;5015567;28;20235;-46
2023/08/22 03:22:08;;;;;;;8.90;8.20;;;27.70;64.10;;;;;;5015131;28;20208;-48
2023/08/22 03:24:33;;;;;;;9.67;8.70;;;27.90;63.80;;;;;;5014206;28;20542;-47
2023/08/22 03:26:59;;;;;;;9.17;8.47;;;27.90;63.40;;;;;;5012342;28;20193;-46
2023/08/22 03:29:25;;;;;;;14.33;9.10;;;27.80;64.00;;;;;;5015477;28;20287;-45
2023/08/22 03:31:50;;;;;;;9.80;8.90;;;27.70;64.00;;;;;;5014571;28;20200;-46
2023/08/22 03:34:16;;;;;;;10.77;9.07;;;27.80;63.50;;;;;;5015235;28;20201;-47
2023/08/22 03:36:41;;;;;;;9.20;8.37;;;27.90;63.10;;;;;;5014657;28;20253;-45
2023/08/22 03:39:07;;;;;;;8.23;7.53;;;27.90;62.50;;;;;;5015216;28;20209;-47
2023/08/22 03:41:33;;;;;;;8.40;7.70;;;27.90;62.20;;;;;;5013120;28;20225;-45
2023/08/22 03:43:58;;;;;;;7.83;7.00;;;28.00;61.80;;;;;;5014812;28;20574;-46
2023/08/22 03:46:24;;;;;;;8.53;7.93;;;28.00;61.60;;;;;;5014348;28;20233;-45
2023/08/22 03:48:49;;;;;;;9.13;7.80;;;28.00;61.60;;;;;;5014722;28;20204;-47
2023/08/22 03:51:15;;;;;;;13.10;8.20;;;28.00;61.60;;;;;;5014527;28;20618;-45
2023/08/22 03:53:41;;;;;;;9.50;8.50;;;28.00;61.30;;;;;;5014604;28;20200;-45
2023/08/22 03:56:06;;;;;;;9.30;8.27;;;28.00;61.40;;;;;;5014320;28;20214;-46
2023/08/22 03:58:32;;;;;;;9.20;8.40;;;28.00;61.40;;;;;;5014950;28;20221;-48
2023/08/22 04:01:03;;;;;;;9.03;8.20;;;28.00;61.50;;;;;;5014171;28;20221;-45
2023/08/22 04:03:29;;;;;;;9.50;8.70;;;27.90;61.70;;;;;;5014434;28;20226;-47
2023/08/22 04:05:54;;;;;;;9.80;8.80;;;27.90;61.80;;;;;;5014398;28;20413;-53
2023/08/22 04:08:20;;;;;;;9.27;8.40;;;27.90;61.80;;;;;;5013160;28;20775;-48
2023/08/22 04:10:45;;;;;;;8.97;8.10;;;27.90;61.70;;;;;;5014620;28;20600;-46
2023/08/22 04:13:11;;;;;;;10.63;8.83;;;27.90;61.70;;;;;;5013882;28;20202;-47
2023/08/22 04:15:39;;;;;;;9.57;8.40;;;27.80;61.90;;;;;;5017664;28;20181;-46
2023/08/22 04:18:05;;;;;;;10.70;9.60;;;27.80;62.00;;;;;;5020669;28;20234;-46
2023/08/22 04:20:31;;;;;;;9.90;8.37;;;27.80;62.10;;;;;;5014566;28;20453;-45
2023/08/22 04:22:56;;;;;;;9.67;8.77;;;27.80;62.20;;;;;;5013759;28;20954;-45
2023/08/22 04:25:22;;;;;;;9.17;8.40;;;27.80;62.10;;;;;;5014444;28;20324;-45
2023/08/22 04:27:47;;;;;;;9.10;8.20;;;27.80;62.20;;;;;;5012253;28;20768;-46
2023/08/22 04:30:13;;;;;;;9.23;8.27;;;27.80;62.40;;;;;;5013950;28;20284;-47
2023/08/22 04:32:39;;;;;;;12.47;9.37;;;27.70;62.30;;;;;;5013757;28;20197;-45
2023/08/22 04:35:05;;;;;;;10.10;9.20;;;27.80;62.30;;;;;;5012551;28;20189;-45
2023/08/22 04:37:30;;;;;;;10.43;9.20;;;27.80;62.40;;;;;;5013492;28;20278;-45
2023/08/22 04:39:56;;;;;;;10.40;9.50;;;27.70;62.90;;;;;;5013750;28;20417;-46
2023/08/22 04:42:22;;;;;;;11.27;8.87;;;27.70;63.10;;;;;;5013586;28;20197;-45
2023/08/22 04:44:47;;;;;;;9.33;8.53;;;27.70;62.90;;;;;;5013997;28;20190;-45
2023/08/22 04:47:13;;;;;;;9.60;8.70;;;27.70;62.50;;;;;;5013314;28;20265;-46
2023/08/22 04:49:38;;;;;;;9.63;8.93;;;27.80;62.40;;;;;;5013611;28;20543;-49
2023/08/22 04:52:04;;;;;;;9.63;8.70;;;27.80;62.20;;;;;;5013302;28;20615;-48
2023/08/22 04:54:30;;;;;;;10.77;9.27;;;27.80;62.50;;;;;;5013765;28;20256;-46
2023/08/22 04:56:55;;;;;;;10.70;9.60;;;27.70;62.40;;;;;;5013023;28;20301;-45
2023/08/22 04:59:22;;;;;;;10.00;9.07;;;27.80;62.60;;;;;;5013786;28;20276;-45
2023/08/22 05:01:47;;;;;;;11.07;9.10;;;27.80;62.60;;;;;;5011499;28;20590;-45
2023/08/22 05:04:13;;;;;;;9.30;8.50;;;27.80;62.60;;;;;;5001293;28;20518;-46
2023/08/22 05:06:38;;;;;;;9.87;9.03;;;27.80;62.60;;;;;;5012971;28;20194;-45
2023/08/22 05:09:04;;;;;;;9.70;8.83;;;27.70;62.40;;;;;;5013607;28;20194;-46
2023/08/22 05:11:29;;;;;;;8.90;8.20;;;27.70;62.70;;;;;;5012929;28;20198;-47
2023/08/22 05:13:55;;;;;;;9.80;8.80;;;27.70;62.40;;;;;;5010090;28;20198;-45
2023/08/22 05:16:21;;;;;;;15.47;12.93;;;27.70;62.60;;;;;;5021926;28;20227;-47
2023/08/22 05:18:46;;;;;;;17.70;13.80;;;27.70;62.70;;;;;;5013445;28;20190;-46
2023/08/22 05:21:12;;;;;;;14.70;12.90;;;27.70;63.00;;;;;;5012625;28;20193;-45
2023/08/22 05:23:37;;;;;;;11.73;10.63;;;27.50;64.10;;;;;;5013538;28;20190;-45
2023/08/22 05:26:03;;;;;;;12.20;10.67;;;27.30;65.10;;;;;;5012740;28;20225;-46
2023/08/22 05:28:28;;;;;;;11.90;10.80;;;27.00;66.90;;;;;;5011554;28;20193;-45
2023/08/22 05:30:54;;;;;;;12.00;10.90;;;27.00;67.10;;;;;;5012874;28;20251;-48
2023/08/22 05:33:20;;;;;;;10.00;9.10;;;26.90;67.60;;;;;;5013234;28;20186;-46
2023/08/22 05:35:45;;;;;;;11.33;10.27;;;26.70;68.60;;;;;;5013338;28;20208;-45
2023/08/22 05:38:11;;;;;;;10.40;9.40;;;26.40;70.50;;;;;;5012356;28;20261;-46
2023/08/22 05:40:37;;;;;;;11.27;10.37;;;26.20;71.70;;;;;;5013196;28;20232;-45
2023/08/22 05:43:03;;;;;;;11.03;9.80;;;26.30;71.60;;;;;;5012483;28;20472;-46
2023/08/22 05:45:28;;;;;;;11.63;10.57;;;26.40;71.60;;;;;;5013294;28;20239;-46
2023/08/22 05:47:54;;;;;;;12.40;9.80;;;26.40;72.20;;;;;;5010005;28;20249;-45
2023/08/22 05:50:20;;;;;;;10.77;9.87;;;26.50;71.10;;;;;;5002217;28;20186;-45
2023/08/22 05:52:45;;;;;;;13.30;10.47;;;26.50;71.20;;;;;;5012171;28;20201;-45
2023/08/22 05:55:11;;;;;;;11.40;10.17;;;26.30;72.20;;;;;;5011196;28;20194;-45
2023/08/22 05:57:36;;;;;;;11.90;10.23;;;26.40;72.60;;;;;;5012153;28;20227;-45
2023/08/22 06:00:03;;;;;;;10.77;9.80;;;26.30;73.30;;;;;;5012943;28;20562;-45
2023/08/22 06:02:29;;;;;;;15.57;10.00;;;26.60;71.90;;;;;;5012438;28;20277;-45
2023/08/22 06:04:54;;;;;;;12.00;10.90;;;26.90;70.20;;;;;;5002812;28;20513;-45
2023/08/22 06:07:20;;;;;;;12.30;11.10;;;27.20;69.00;;;;;;5011915;28;20259;-45
2023/08/22 06:09:46;;;;;;;10.70;9.70;;;27.50;67.90;;;;;;5012728;28;20432;-45
2023/08/22 06:12:12;;;;;;;11.00;10.00;;;27.60;67.40;;;;;;5012134;28;20693;-46
2023/08/22 06:14:38;;;;;;;10.23;9.23;;;27.70;66.30;;;;;;5002830;28;20186;-45
2023/08/22 06:17:04;;;;;;;9.97;9.10;;;27.90;65.30;;;;;;5015810;28;20665;-46
2023/08/22 06:19:29;;;;;;;9.73;8.93;;;28.00;64.80;;;;;;5012535;28;20479;-46
2023/08/22 06:21:55;;;;;;;10.33;9.30;;;28.00;64.20;;;;;;5010580;28;20204;-45
2023/08/22 06:24:20;;;;;;;9.60;8.30;;;28.00;63.90;;;;;;5012470;28;20186;-45
2023/08/22 06:26:48;;;;;;;10.03;9.23;;;28.10;63.80;;;;;;5011877;28;20645;-46
2023/08/22 06:29:13;;;;;;;8.97;8.10;;;28.30;63.20;;;;;;5012783;28;20623;-46
2023/08/22 06:31:39;;;;;;;10.00;9.10;;;28.20;63.90;;;;;;5011615;28;20515;-45
2023/08/22 06:34:04;;;;;;;11.27;10.27;;;28.20;63.70;;;;;;5015170;28;20197;-46
2023/08/22 06:36:30;;;;;;;10.67;9.67;;;28.10;64.10;;;;;;5011927;28;20226;-45
2023/08/22 06:38:56;;;;;;;11.50;10.60;;;28.20;63.80;;;;;;5012614;28;20654;-45
2023/08/22 06:41:21;;;;;;;12.17;11.10;;;28.40;63.20;;;;;;5012229;28;20562;-46
2023/08/22 06:43:47;;;;;;;10.27;9.17;;;28.70;61.70;;;;;;5011708;28;20198;-51
2023/08/22 06:46:15;;;;;;;11.80;9.80;;;28.60;62.90;;;;;;5011307;28;20245;-45
2023/08/22 06:48:41;;;;;;;12.77;10.60;;;28.80;62.40;;;;;;5011836;28;20232;-46
2023/08/22 06:51:06;;;;;;;10.50;9.60;;;29.10;61.70;;;;;;5011184;28;20510;-46
2023/08/22 06:53:32;;;;;;;10.67;9.80;;;29.30;59.90;;;;;;5012496;28;20201;-47
2023/08/22 06:55:58;;;;;;;9.73;8.83;;;29.60;59.00;;;;;;5011834;28;20186;-46
2023/08/22 06:58:23;;;;;;;9.20;8.40;;;29.90;58.50;;;;;;5013883;28;20240;-46
2023/08/22 07:00:49;;;;;;;10.10;9.07;;;30.20;57.80;;;;;;5016151;28;20198;-51
2023/08/22 07:03:14;;;;;;;10.73;9.10;;;30.50;56.80;;;;;;5015548;28;20344;-46
2023/08/22 07:05:40;;;;;;;10.63;9.20;;;30.80;55.80;;;;;;5016130;28;20198;-46
2023/08/22 07:08:06;;;;;;;10.83;9.93;;;31.00;54.70;;;;;;5015656;28;20190;-45
2023/08/22 07:10:32;;;;;;;10.63;9.63;;;31.20;54.20;;;;;;5015581;28;20565;-45
2023/08/22 07:12:57;;;;;;;10.30;9.30;;;31.30;53.90;;;;;;5014465;28;20557;-49
2023/08/22 07:15:23;;;;;;;10.57;9.67;;;31.50;53.40;;;;;;5016383;28;20196;-46
2023/08/22 07:17:48;;;;;;;10.50;9.57;;;31.60;53.10;;;;;;5025580;28;20228;-46
2023/08/22 07:20:14;;;;;;;10.37;9.57;;;31.70;53.00;;;;;;5015691;28;20205;-46
2023/08/22 07:22:40;;;;;;;10.43;9.47;;;31.90;52.80;;;;;;5015129;28;20638;-45
2023/08/22 07:25:06;;;;;;;10.00;9.10;;;32.10;52.30;;;;;;5015495;28;20193;-46
2023/08/22 07:27:32;;;;;;;11.07;9.97;;;32.30;51.90;;;;;;5014681;28;20214;-45
2023/08/22 07:29:58;;;;;;;10.37;9.23;;;32.40;51.40;;;;;;5015531;28;20772;-48
2023/08/22 07:32:23;;;;;;;10.03;9.13;;;32.60;51.00;;;;;;5015089;28;20516;-45
2023/08/22 07:34:49;;;;;;;9.57;8.77;;;32.70;50.50;;;;;;5015546;28;20540;-46
2023/08/22 07:37:15;;;;;;;9.80;8.80;;;32.90;50.50;;;;;;5014602;28;20253;-46
2023/08/22 07:39:42;;;;;;;10.37;9.37;;;33.00;50.20;;;;;;5013823;28;20249;-49
2023/08/22 07:42:08;;;;;;;9.67;8.87;;;33.10;49.80;;;;;;5014886;28;20483;-48
2023/08/22 07:44:34;;;;;;;10.13;9.20;;;33.30;49.50;;;;;;5015549;28;20436;-46
2023/08/22 07:47:00;;;;;;;11.67;9.50;;;33.40;48.90;;;;;;5014253;28;20473;-47
2023/08/22 07:49:27;;;;;;;10.30;9.27;;;33.50;48.70;;;;;;5015214;28;20425;-46
2023/08/22 07:51:52;;;;;;;9.47;8.57;;;33.50;48.90;;;;;;5014681;28;20659;-46
2023/08/22 07:54:18;;;;;;;10.10;9.10;;;33.60;49.00;;;;;;5015348;28;20449;-47
2023/08/22 07:56:44;;;;;;;10.50;9.50;;;33.70;48.90;;;;;;5014115;28;20308;-46
2023/08/22 07:59:12;;;;;;;10.63;9.80;;;33.80;49.00;;;;;;5015058;28;20205;-46
2023/08/22 08:01:37;;;;;;;9.80;8.90;;;33.90;48.70;;;;;;5014490;28;20425;-48
2023/08/22 08:04:03;;;;;;;8.97;8.10;;;33.90;48.20;;;;;;5014950;28;20503;-46
2023/08/22 08:06:33;;;;;;;9.63;8.63;;;33.90;49.10;;;;;;5012632;28;20198;-46
2023/08/22 08:09:00;;;;;;;9.67;8.53;;;34.00;49.00;;;;;;5014660;28;20186;-46
2023/08/22 08:11:27;;;;;;;9.80;8.97;;;34.10;47.70;;;;;;5013618;28;20441;-46
2023/08/22 08:13:53;;;;;;;9.00;8.23;;;34.20;47.50;;;;;;5014794;28;20432;-46
2023/08/22 08:16:18;;;;;;;8.97;8.20;;;34.30;47.30;;;;;;5014610;28;20461;-47
2023/08/22 08:18:45;;;;;;;9.27;7.87;;;34.40;47.10;;;;;;5014820;28;20193;-46
2023/08/22 08:21:10;;;;;;;17.20;9.47;;;34.40;47.30;;;;;;5013913;28;20201;-47
2023/08/22 08:23:36;;;;;;;9.37;8.67;;;34.60;47.10;;;;;;5014643;28;20432;-46
2023/08/22 08:26:03;;;;;;;8.03;7.37;;;34.60;46.70;;;;;;5014021;28;20703;-47
2023/08/22 08:28:31;;;;;;;7.30;6.70;;;34.80;47.10;;;;;;5006619;28;20202;-48
2023/08/22 08:30:56;;;;;;;8.67;7.73;;;35.00;45.80;;;;;;5013660;28;20429;-46
2023/08/22 08:33:22;;;;;;;7.97;7.27;;;35.10;45.40;;;;;;5012765;28;20453;-46
2023/08/22 08:35:48;;;;;;;9.90;6.73;;;35.20;44.60;;;;;;5014346;28;20226;-46
2023/08/22 08:38:14;;;;;;;9.23;8.10;;;35.30;44.10;;;;;;5014016;28;20280;-46
2023/08/22 08:40:42;;;;;;;10.60;7.27;;;35.10;44.30;;;;;;5014446;28;20552;-46
2023/08/22 08:43:08;;;;;;;8.47;7.40;;;35.00;44.70;;;;;;5013580;28;20281;-47
2023/08/22 08:45:34;;;;;;;8.63;6.50;;;35.10;44.60;;;;;;5014532;28;20506;-48
2023/08/22 08:48:02;;;;;;;8.13;7.33;;;35.30;44.30;;;;;;5013663;28;20233;-46
2023/08/22 08:50:30;;;;;;;6.50;5.90;;;35.40;43.80;;;;;;5013700;28;20452;-46
2023/08/22 08:52:55;;;;;;;8.57;6.60;;;35.50;43.80;;;;;;5013815;28;20429;-47
2023/08/22 08:55:21;;;;;;;7.27;6.67;;;35.60;44.00;;;;;;5013954;28;20428;-46
2023/08/22 08:57:47;;;;;;;8.83;6.67;;;35.60;43.60;;;;;;5013502;28;20708;-49
2023/08/22 09:00:15;;;;;;;8.00;7.40;;;35.70;43.00;;;;;;5012107;28;20193;-49
2023/08/22 09:02:40;;;;;;;7.77;6.97;;;35.80;43.10;;;;;;5013307;28;20202;-48
2023/08/22 09:05:06;;;;;;;8.60;6.70;;;36.00;43.00;;;;;;5013817;28;20951;-46
2023/08/22 09:07:33;;;;;;;8.13;6.60;;;36.00;43.20;;;;;;5012680;28;20188;-46
2023/08/22 09:10:01;;;;;;;7.97;7.27;;;36.20;42.60;;;;;;5013552;28;20189;-46
2023/08/22 09:12:34;;;;;;;9.53;7.40;;;36.30;42.40;;;;;;5012281;28;20421;-47
2023/08/22 09:15:00;;;;;;;8.00;7.40;;;36.20;42.40;;;;;;5008279;28;20520;-46
2023/08/22 09:17:29;;;;;;;6.53;5.93;;;36.30;42.00;;;;;;5023302;28;20590;-47
2023/08/22 09:19:55;;;;;;;7.40;5.90;;;36.30;41.60;;;;;;5013427;28;20205;-46
2023/08/22 09:22:29;;;;;;;6.90;6.23;;;36.40;41.50;;;;;;5012359;28;20427;-51
2023/08/22 09:24:55;;;;;;;7.97;7.17;;;36.60;41.40;;;;;;5013362;28;20197;-47
2023/08/22 09:27:27;;;;;;;7.00;6.50;;;36.70;40.90;;;;;;5011467;28;20440;-46
2023/08/22 09:30:06;;;;;;;5.70;5.30;;;36.80;41.50;;;;;;5010934;28;20205;-47
2023/08/22 09:32:32;;;;;;;5.17;4.77;;;36.80;40.70;;;;;;5013008;28;20445;-49
2023/08/22 09:35:00;;;;;;;6.13;5.57;;;36.90;39.80;;;;;;5013751;28;20547;-47
2023/08/22 09:37:37;;;;;;;6.37;5.33;;;36.70;40.20;;;;;;5012780;28;20231;-48
2023/08/22 09:40:08;;;;;;;6.43;5.57;;;36.80;40.40;;;;;;5013441;28;20448;-47
2023/08/22 09:42:38;;;;;;;5.77;5.33;;;36.90;40.10;;;;;;5012754;28;20425;-47
2023/08/22 09:45:04;;;;;;;7.13;5.90;;;36.90;39.70;;;;;;5013224;28;20428;-51
2023/08/22 09:47:31;;;;;;;5.87;5.20;;;36.80;39.60;;;;;;5012321;28;20457;-47
2023/08/22 09:50:03;;;;;;;5.83;5.20;;;36.80;40.50;;;;;;5012762;28;20431;-51
2023/08/22 09:52:30;;;;;;;5.33;4.97;;;37.10;40.40;;;;;;5012152;28;20431;-51
2023/08/22 09:54:56;;;;;;;6.80;6.07;;;37.40;39.50;;;;;;5011463;28;20424;-51
2023/08/22 09:57:27;;;;;;;7.57;6.03;;;37.60;38.60;;;;;;5012116;28;20554;-52
2023/08/22 09:59:53;;;;;;;6.80;6.13;;;37.80;39.00;;;;;;5011973;28;20436;-52
2023/08/22 10:02:22;;;;;;;6.07;5.67;;;37.90;39.30;;;;;;5012557;28;20431;-48
2023/08/22 10:04:47;;;;;;;6.80;6.20;;;37.80;37.80;;;;;;5013274;28;20233;-51
2023/08/22 10:07:13;;;;;;;5.80;5.20;;;37.90;38.00;;;;;;5012095;28;20522;-53
2023/08/22 10:09:40;;;;;;;6.30;5.80;;;38.10;38.30;;;;;;5012924;28;20196;-52
2023/08/22 10:12:12;;;;;;;6.17;5.70;;;38.30;37.50;;;;;;5012346;28;20200;-51
2023/08/22 10:14:46;;;;;;;15.23;6.10;;;38.50;37.40;;;;;;5012464;28;20420;-52
2023/08/22 10:17:15;;;;;;;5.47;5.07;;;38.30;37.30;;;;;;5015523;28;20487;-53
2023/08/22 10:19:42;;;;;;;6.33;5.73;;;38.30;38.00;;;;;;5010931;28;20443;-50
2023/08/22 10:22:10;;;;;;;6.23;5.63;;;38.40;37.20;;;;;;5012519;28;20435;-51
2023/08/22 10:24:36;;;;;;;6.50;5.90;;;38.50;36.90;;;;;;5012998;28;20439;-47
2023/08/22 10:27:12;;;;;;;7.70;6.23;;;38.70;37.40;;;;;;5012468;28;20412;-51
2023/08/22 10:30:08;;;;;;;6.07;5.67;;;39.00;37.50;;;;;;5012633;28;20200;-49
2023/08/22 10:32:33;;;;;;;5.93;5.37;;;39.10;37.40;;;;;;5011934;28;20800;-53
2023/08/22 10:35:04;;;;;;;5.50;5.00;;;39.10;35.90;;;;;;5016701;28;20428;-53
2023/08/22 10:37:29;;;;;;;5.40;5.00;;;39.10;36.40;;;;;;5015992;28;20220;-53
2023/08/22 10:39:59;;;;;;;6.20;5.60;;;39.30;36.60;;;;;;5016541;28;20934;-53
2023/08/22 10:42:25;;;;;;;5.37;4.80;;;39.50;36.20;;;;;;5015997;28;20276;-51
2023/08/22 10:44:56;;;;;;;6.03;5.30;;;39.60;35.40;;;;;;5016718;28;20831;-51
2023/08/22 10:47:21;;;;;;;7.63;5.67;;;39.60;34.50;;;;;;5013854;28;20507;-53
2023/08/22 10:49:55;;;;;;;6.70;5.23;;;39.60;34.80;;;;;;5016061;28;20459;-48
2023/08/22 10:52:32;;;;;;;5.10;4.70;;;39.60;34.10;;;;;;5015748;28;20205;-49
2023/08/22 10:55:10;;;;;;;5.70;5.30;;;39.60;34.40;;;;;;5016426;28;20439;-52
2023/08/22 10:57:37;;;;;;;5.73;5.07;;;39.60;34.20;;;;;;5015852;28;20853;-53
2023/08/22 11:00:19;;;;;;;4.57;4.17;;;39.90;34.20;;;;;;5015961;28;20420;-51
2023/08/22 11:02:48;;;;;;;7.00;5.17;;;39.90;34.30;;;;;;5015570;28;20406;-52
2023/08/22 11:05:15;;;;;;;6.30;5.70;;;40.00;33.90;;;;;;5016183;28;20416;-53
2023/08/22 11:07:42;;;;;;;5.53;5.00;;;39.90;34.00;;;;;;5015261;28;20425;-53
2023/08/22 11:10:18;;;;;;;6.33;5.10;;;39.90;34.40;;;;;;5015870;28;20420;-53
2023/08/22 11:12:45;;;;;;;5.30;4.80;;;40.10;33.50;;;;;;5013910;28;20489;-53
2023/08/22 11:15:14;;;;;;;5.03;4.60;;;40.00;34.10;;;;;;5016094;28;20977;-52
2023/08/22 11:17:40;;;;;;;6.33;5.63;;;40.20;32.70;;;;;;5023778;28;20479;-50
2023/08/22 11:20:11;;;;;;;5.53;5.00;;;40.00;33.10;;;;;;5015784;28;20420;-53
2023/08/22 11:22:37;;;;;;;4.90;4.50;;;40.10;32.80;;;;;;5014921;28;20510;-53
2023/08/22 11:25:04;;;;;;;5.90;5.10;;;40.10;33.10;;;;;;5015636;28;20417;-53
2023/08/22 11:27:30;;;;;;;5.20;4.80;;;40.10;33.40;;;;;;5015212;28;20200;-52
2023/08/22 11:29:55;;;;;;;4.87;4.47;;;40.10;33.20;;;;;;5015418;28;20432;-52
2023/08/22 11:32:25;;;;;;;6.90;4.87;;;40.00;32.50;;;;;;5015048;28;20219;-53
2023/08/22 11:34:57;;;;;;;5.60;5.10;;;40.20;32.50;;;;;;5015438;28;20256;-47
2023/08/22 11:37:26;;;;;;;5.40;4.90;;;40.30;32.10;;;;;;5014993;28;20541;-47
2023/08/22 11:39:53;;;;;;;5.97;4.67;;;40.60;32.50;;;;;;5013714;28;20428;-49
2023/08/22 11:42:20;;;;;;;5.33;4.90;;;40.90;31.80;;;;;;5014643;28;20456;-47
2023/08/22 11:45:04;;;;;;;5.50;5.00;;;41.10;32.50;;;;;;5014315;28;20447;-47
2023/08/22 11:47:47;;;;;;;5.23;4.83;;;41.40;31.70;;;;;;5014971;28;20451;-47
2023/08/22 11:50:19;;;;;;;5.30;4.40;;;41.20;30.90;;;;;;5004569;28;20431;-47
2023/08/22 11:52:47;;;;;;;5.00;4.20;;;41.10;30.10;;;;;;5014654;28;20480;-47
2023/08/22 11:55:24;;;;;;;4.70;4.40;;;41.00;31.30;;;;;;5015296;28;20778;-47
2023/08/22 11:57:50;;;;;;;3.83;3.53;;;41.00;30.30;;;;;;5014169;28;20847;-52
2023/08/22 12:00:16;;;;;;;4.50;4.10;;;40.70;29.80;;;;;;5015077;28;20436;-47
2023/08/22 12:02:55;;;;;;;4.70;4.30;;;40.30;30.00;;;;;;5014376;28;20908;-48
2023/08/22 12:05:30;;;;;;;4.63;4.10;;;40.10;30.80;;;;;;5014623;28;20527;-47
2023/08/22 12:08:17;;;;;;;4.63;4.20;;;40.10;31.90;;;;;;5013221;28;20927;-49
2023/08/22 12:10:49;;;;;;;4.47;4.17;;;40.00;31.20;;;;;;5014305;28;20436;-47
2023/08/22 12:13:19;;;;;;;4.43;4.03;;;40.20;31.00;;;;;;5014469;28;20491;-48
2023/08/22 12:15:45;;;;;;;4.97;4.53;;;40.30;31.40;;;;;;5016207;28;20524;-47
2023/08/22 12:18:11;;;;;;;4.90;4.50;;;40.50;31.20;;;;;;5014012;28;20963;-48
2023/08/22 12:20:40;;;;;;;5.73;4.97;;;40.50;31.20;;;;;;5014790;28;20455;-47
2023/08/22 12:23:08;;;;;;;6.67;4.50;;;40.60;31.50;;;;;;5014252;28;20946;-47
2023/08/22 12:25:34;;;;;;;4.77;4.47;;;40.60;31.20;;;;;;5014761;28;20420;-47
2023/08/22 12:28:03;;;;;;;5.10;4.70;;;40.70;32.00;;;;;;5011719;28;20433;-48
2023/08/22 12:30:35;;;;;;;3.90;3.70;;;40.60;30.80;;;;;;5009822;28;20432;-47
2023/08/22 12:33:05;;;;;;;6.23;4.67;;;40.60;30.80;;;;;;5012474;28;20436;-49
2023/08/22 12:35:32;;;;;;;4.50;4.10;;;40.70;31.10;;;;;;5014195;28;20436;-48
2023/08/22 12:37:58;;;;;;;4.70;4.33;;;40.70;30.60;;;;;;5013683;28;20468;-50
2023/08/22 12:40:24;;;;;;;5.20;4.63;;;40.70;30.70;;;;;;5014369;28;20487;-49
2023/08/22 12:42:49;;;;;;;4.90;4.40;;;40.80;30.90;;;;;;5013752;28;20193;-50